KSPA

Details ICAO KSPA
Name SPARTANBURG DOWNTOWN MEM
Region United States
Timezone America/New_York (UTC-5.0)
Plans Departing 5
Arriving 3
Stats Elevation 800 ft / 244 m (AMSL)
Location 34.915732° -81.956493°
Runways 1
Magnetic Variation 6.968° W
Sunrise 2017-12-17 12:31:01 UTC / 2017-12-17 07:31:01 Local
Sunset 2017-12-17 22:19:50 UTC / 2017-12-17 17:19:50 Local
Advertisement - Login to hide

Runways

ID Width Length Bearing (true) Bearing (mag) Surface Threshold Offset Overrun Length
05 100 ft / 30 m 5,205 ft / 1,587 m 41.44° 48.41° Asphalt 0 ft / 0 m 0 ft / 0 m
23 100 ft / 30 m 5,205 ft / 1,587 m 221.45° 228.42° Asphalt 0 ft / 0 m 0 ft / 0 m

Map

Weather


0- 5 10 15 20 25 30 35+ Temperature / ° C

Clouds and Precipitation
Forecast for 2017-12-17 18:00 UTC. Updated an hour ago

Ground ~20,000 ft ~40,000 ft Winds

METAR

KSPA 171415Z AUTO 00000KT 10SM CLR 01/M02 A3027 RMK AO2

TAF

Not found

Frequencies

Recorded 133.92 MHz AWOS 3
Clearance 120.55 MHz CLNC DEL
Unicom 123.00 MHz CTAF/UNICOM
Approach 119.40 MHz GREER APP/DEP
Warning: Do not use this data for real-world aviation or navigation. No guarantee of current accuracy is given.